createdAt,value
2017-07-15T00:10:35.000Z,75.2
2017-07-15T00:27:17.000Z,75.6
2017-07-15T00:43:58.000Z,76.8
2017-07-15T01:00:40.000Z,76.8
2017-07-15T01:17:22.000Z,76.4
2017-07-15T01:34:04.000Z,77.2
2017-07-15T01:50:45.000Z,78
2017-07-15T02:07:26.000Z,78
2017-07-15T02:24:08.000Z,78.4
2017-07-15T02:40:49.000Z,78.4
2017-07-15T02:57:30.000Z,78.4
2017-07-15T03:14:11.000Z,79.2
2017-07-15T03:30:53.000Z,79.2
2017-07-15T03:47:34.000Z,79.6
2017-07-15T04:04:15.000Z,79.6
2017-07-15T04:20:56.000Z,80
2017-07-15T04:37:39.000Z,79.6
2017-07-15T04:54:21.000Z,79.6
2017-07-15T05:11:03.000Z,79.6
2017-07-15T05:27:45.000Z,79.2
2017-07-15T05:44:28.000Z,78.8
2017-07-15T06:01:12.000Z,78.8
2017-07-15T06:07:53.000Z,78
2017-07-15T06:17:55.000Z,78
2017-07-15T06:31:19.000Z,76
2017-07-15T06:48:03.000Z,76.4
2017-07-15T07:04:46.000Z,76.4
2017-07-15T07:21:30.000Z,76
2017-07-15T07:38:15.000Z,75.6
2017-07-15T07:51:38.000Z,74.4
2017-07-15T08:08:23.000Z,73.6
2017-07-15T08:21:47.000Z,72.8
2017-07-15T08:28:29.000Z,72
2017-07-15T08:41:54.000Z,70.8
2017-07-15T08:58:39.000Z,70.4
2017-07-15T09:15:25.000Z,68.8
2017-07-15T09:22:08.000Z,68.8
2017-07-15T09:38:54.000Z,67.6
2017-07-15T09:55:40.000Z,66.4
2017-07-15T10:05:45.000Z,64.8
2017-07-15T10:19:10.000Z,62.8
2017-07-15T10:25:53.000Z,62.8
2017-07-15T10:39:20.000Z,62
2017-07-15T10:49:24.000Z,62
2017-07-15T11:12:56.000Z,60
2017-07-15T11:29:45.000Z,60
2017-07-15T11:43:12.000Z,58.4
2017-07-15T12:00:01.000Z,57.6
2017-07-15T12:16:50.000Z,56
2017-07-15T12:33:39.000Z,56
2017-07-15T13:07:19.000Z,53.6
2017-07-15T13:24:08.000Z,54
2017-07-15T13:37:36.000Z,52.8
2017-07-15T13:54:27.000Z,51.2
2017-07-15T14:11:17.000Z,50.8
2017-07-15T14:28:06.000Z,49.6
2017-07-15T15:01:47.000Z,50.8
2017-07-15T15:18:37.000Z,49.6
2017-07-15T15:35:27.000Z,49.6
2017-07-15T15:52:18.000Z,49.2
2017-07-15T16:09:08.000Z,49.2
2017-07-15T16:19:14.000Z,49.2
2017-07-15T16:36:06.000Z,47.2
2017-07-15T16:42:50.000Z,46.4
2017-07-15T16:59:42.000Z,45.6
2017-07-15T17:06:27.000Z,44
2017-07-15T17:13:12.000Z,42.8
2017-07-15T17:23:19.000Z,44
2017-07-15T17:40:10.000Z,44.8
2017-07-15T17:46:54.000Z,45.6
2017-07-15T17:57:00.000Z,46.4
2017-07-15T18:07:05.000Z,47.6
2017-07-15T18:17:10.000Z,48.4
2017-07-15T18:33:58.000Z,49.6
2017-07-15T18:50:46.000Z,50.4
2017-07-15T19:07:34.000Z,52
2017-07-15T19:24:21.000Z,52.8
2017-07-15T19:41:07.000Z,53.6
2017-07-15T19:57:54.000Z,54.4
2017-07-15T20:14:41.000Z,54.8
2017-07-15T20:31:27.000Z,56
2017-07-15T20:48:13.000Z,56.4
2017-07-15T21:05:00.000Z,56.4
2017-07-15T21:21:46.000Z,57.6
2017-07-15T21:38:32.000Z,58.4
2017-07-15T21:55:19.000Z,59.2
2017-07-15T22:12:04.000Z,60
2017-07-15T22:28:50.000Z,60.4
2017-07-15T22:45:35.000Z,61.2
2017-07-15T23:02:22.000Z,61.2
2017-07-15T23:19:08.000Z,62
2017-07-15T23:35:53.000Z,62.4
2017-07-15T23:52:38.000Z,63.2
